Time;durP1;ratioP1;P1;durP2;ratioP2;P2;SDS_P1;SDS_P2;PMS_P1;PMS_P2;Temp;Humidity;BMP_temperature;BMP_pressure;BME280_temperature;BME280_humidity;BME280_pressure;Samples;Min_cycle;Max_cycle;Signal;HPM_P1;HPM_P2
2024/01/12 00:01:19;;;;;;;65.43;42.72;;;;;;;-4.08;81.83;99270.94;4989820;28;20241;-79
2024/01/12 00:03:46;;;;;;;60.83;43.50;;;;;;;-4.04;82.05;99267.19;4998652;28;20309;-80
2024/01/12 00:06:14;;;;;;;64.50;46.58;;;;;;;-3.97;82.06;99270.38;4973969;28;20195;-80
2024/01/12 00:08:40;;;;;;;67.22;47.45;;;;;;;-3.97;82.22;99273.03;4984323;28;20209;-80
2024/01/12 00:11:09;;;;;;;65.63;45.33;;;;;;;-3.94;81.80;99270.22;4989512;28;20199;-79
2024/01/12 00:13:36;;;;;;;62.95;45.10;;;;;;;-3.90;81.56;99258.56;4988935;28;20203;-80
2024/01/12 00:16:06;;;;;;;64.70;46.35;;;;;;;-3.88;81.47;99276.00;4991301;28;20222;-78
2024/01/12 00:18:34;;;;;;;63.20;43.95;;;;;;;-3.99;81.67;99272.25;4990172;28;20284;-80
2024/01/12 00:21:01;;;;;;;61.85;45.58;;;;;;;-3.90;81.59;99267.34;4988917;28;20217;-79
2024/01/12 00:23:27;;;;;;;69.50;48.72;;;;;;;-3.93;81.48;99269.28;4981975;28;20265;-79
2024/01/12 00:25:58;;;;;;;64.65;45.08;;;;;;;-3.92;81.60;99273.63;4989246;28;20553;-80
2024/01/12 00:28:26;;;;;;;63.92;45.83;;;;;;;-4.10;81.92;99263.09;4990013;28;20226;-80
2024/01/12 00:30:53;;;;;;;61.15;42.88;;;;;;;-4.12;81.83;99274.66;4978792;28;20211;-79
2024/01/12 00:33:20;;;;;;;59.30;43.55;;;;;;;-4.07;81.74;99272.66;4987411;28;20214;-79
2024/01/12 00:35:48;;;;;;;60.75;42.45;;;;;;;-4.24;81.93;99281.47;4990718;28;20338;-79
2024/01/12 00:38:14;;;;;;;65.05;43.65;;;;;;;-4.37;82.80;99277.75;5020035;28;20203;-79
2024/01/12 00:40:41;;;;;;;62.25;46.58;;;;;;;-4.35;82.43;99283.78;4988557;28;20310;-80
2024/01/12 00:43:08;;;;;;;63.75;45.63;;;;;;;-4.28;82.76;99274.63;4989116;28;20657;-79
2024/01/12 00:45:38;;;;;;;63.58;42.40;;;;;;;-4.20;82.47;99276.84;4988171;28;20211;-79
2024/01/12 00:48:06;;;;;;;61.95;46.00;;;;;;;-4.24;82.48;99275.31;4989571;28;20207;-80
2024/01/12 00:50:33;;;;;;;68.32;45.05;;;;;;;-4.24;82.94;99281.47;4997835;28;20214;-80
2024/01/12 00:53:01;;;;;;;66.03;45.88;;;;;;;-4.17;82.53;99281.97;4988036;28;20657;-79
2024/01/12 00:55:27;;;;;;;62.78;44.15;;;;;;;-4.26;83.16;99278.03;4988049;28;20205;-79
2024/01/12 00:57:55;;;;;;;68.80;46.22;;;;;;;-4.35;83.07;99278.50;4990108;28;20230;-80
2024/01/12 01:00:21;;;;;;;65.57;45.65;;;;;;;-4.28;83.34;99274.63;4989912;28;20584;-79
2024/01/12 01:02:49;;;;;;;67.53;49.20;;;;;;;-4.31;82.63;99280.06;5004202;28;20222;-79
2024/01/12 01:05:16;;;;;;;68.38;48.35;;;;;;;-4.33;82.50;99291.66;4993109;28;20218;-79
2024/01/12 01:07:43;;;;;;;62.67;46.08;;;;;;;-4.26;82.46;99285.97;4991969;28;20211;-80
2024/01/12 01:10:10;;;;;;;63.72;45.97;;;;;;;-4.47;82.88;99287.06;4976758;28;20699;-80
2024/01/12 01:12:37;;;;;;;66.80;48.83;;;;;;;-4.62;83.30;99290.47;4992131;28;20561;-80
2024/01/12 01:15:06;;;;;;;63.92;47.28;;;;;;;-4.50;83.23;99280.13;4993348;28;20237;-78
2024/01/12 01:17:33;;;;;;;67.05;47.75;;;;;;;-4.46;83.36;99291.41;4994639;28;20211;-79
2024/01/12 01:20:01;;;;;;;67.72;45.50;;;;;;;-4.44;82.93;99300.09;4969552;28;20318;-80
2024/01/12 01:22:29;;;;;;;72.78;50.50;;;;;;;-4.62;83.77;99295.75;4992124;28;20302;-79
2024/01/12 01:24:56;;;;;;;65.97;46.95;;;;;;;-4.76;84.61;99292.00;4993449;28;20206;-80
2024/01/12 01:27:22;;;;;;;74.22;50.40;;;;;;;-4.60;84.53;99300.03;4976257;28;20211;-78
2024/01/12 01:29:49;;;;;;;73.40;50.90;;;;;;;-4.62;84.01;99293.13;4999728;28;20302;-80
2024/01/12 01:32:15;;;;;;;67.57;48.33;;;;;;;-4.50;84.03;99295.97;4993125;28;20691;-80
2024/01/12 01:34:42;;;;;;;75.13;52.40;;;;;;;-4.63;84.26;99301.97;5001569;28;20209;-80
2024/01/12 01:37:10;;;;;;;67.28;46.72;;;;;;;-4.61;84.74;99306.25;4992502;28;20210;-80
2024/01/12 01:39:36;;;;;;;72.85;49.65;;;;;;;-4.56;84.62;99317.44;4991328;28;20234;-80
2024/01/12 01:42:03;;;;;;;72.65;52.35;;;;;;;-4.51;84.22;99304.84;4992079;28;20222;-80
2024/01/12 01:44:30;;;;;;;68.65;50.80;;;;;;;-4.56;84.27;99303.38;4992569;28;20205;-80
2024/01/12 01:46:59;;;;;;;68.38;48.25;;;;;;;-4.55;84.25;99305.09;4992310;28;20263;-80
2024/01/12 01:49:26;;;;;;;75.75;51.08;;;;;;;-4.66;84.49;99300.34;4990053;28;20207;-80
2024/01/12 01:51:53;;;;;;;78.10;51.85;;;;;;;-4.74;84.65;99300.72;4992223;28;20211;-80
2024/01/12 01:54:22;;;;;;;79.40;53.65;;;;;;;-5.05;85.43;99302.28;4982894;28;20214;-80
2024/01/12 01:56:49;;;;;;;79.20;55.70;;;;;;;-5.13;86.01;99305.28;5002356;28;20200;-80
2024/01/12 01:59:16;;;;;;;82.20;55.00;;;;;;;-5.07;86.34;99299.72;5002634;28;20593;-79
2024/01/12 02:01:43;;;;;;;83.22;55.05;;;;;;;-5.31;86.64;99300.88;4993764;28;20310;-79
2024/01/12 02:04:11;;;;;;;76.97;54.47;;;;;;;-5.15;86.24;99296.59;5007778;28;20207;-79
2024/01/12 02:06:37;;;;;;;72.70;53.47;;;;;;;-5.17;86.15;99298.44;4991203;28;20211;-79
2024/01/12 02:09:05;;;;;;;75.45;54.55;;;;;;;-5.23;86.60;99301.38;4993313;28;20290;-79
2024/01/12 02:11:33;;;;;;;76.75;53.30;;;;;;;-5.09;86.48;99298.94;5002288;28;20597;-79
2024/01/12 02:14:06;;;;;;;77.20;51.58;;;;;;;-4.85;85.41;99310.94;4993230;28;20218;-79
2024/01/12 02:16:34;;;;;;;70.13;48.63;;;;;;;-4.92;85.19;99299.00;4994194;28;20219;-79
2024/01/12 02:19:00;;;;;;;70.15;50.00;;;;;;;-4.93;85.31;99304.34;4993039;28;20602;-79
2024/01/12 02:21:31;;;;;;;65.38;46.25;;;;;;;-4.73;84.31;99304.22;5002210;28;20616;-80
2024/01/12 02:24:00;;;;;;;63.42;45.88;;;;;;;-4.57;83.74;99305.16;5003314;28;20271;-80
2024/01/12 02:26:26;;;;;;;63.95;44.28;;;;;;;-4.63;84.06;99299.34;4997430;28;20211;-80
2024/01/12 02:28:53;;;;;;;60.92;45.20;;;;;;;-4.67;83.25;99297.78;4993554;28;20213;-80
2024/01/12 02:31:21;;;;;;;62.58;43.47;;;;;;;-4.56;84.01;99295.47;4984955;28;20207;-81
2024/01/12 02:33:49;;;;;;;61.63;43.95;;;;;;;-4.73;83.82;99288.38;4974505;28;20326;-80
2024/01/12 02:36:16;;;;;;;67.85;45.72;;;;;;;-4.67;84.24;99287.22;5007157;28;20215;-80
2024/01/12 02:38:50;;;;;;;69.00;47.75;;;;;;;-4.51;83.37;99282.84;4987192;28;20292;-80
2024/01/12 02:41:16;;;;;;;60.28;43.03;;;;;;;-4.48;83.50;99283.56;4967684;28;20226;-80
2024/01/12 02:43:43;;;;;;;54.60;40.13;;;;;;;-4.63;82.90;99289.63;5020879;28;20282;-80
2024/01/12 02:46:10;;;;;;;56.83;37.13;;;;;;;-4.65;83.40;99285.34;5000222;28;20208;-80
2024/01/12 02:48:36;;;;;;;53.08;41.00;;;;;;;-4.67;82.88;99277.50;4992481;28;20211;-80
2024/01/12 02:51:03;;;;;;;53.90;40.40;;;;;;;-4.49;83.46;99267.78;5002598;28;20671;-80
2024/01/12 02:53:30;;;;;;;52.13;36.60;;;;;;;-4.46;82.38;99271.13;4990441;28;20231;-80
2024/01/12 02:55:59;;;;;;;54.45;42.10;;;;;;;-4.55;82.96;99266.34;4986783;28;20342;-80
2024/01/12 02:58:25;;;;;;;56.15;40.10;;;;;;;-4.40;81.83;99275.25;5020999;28;20211;-80
2024/01/12 03:00:52;;;;;;;51.20;37.28;;;;;;;-4.60;81.88;99273.63;4990857;28;20215;-80
2024/01/12 03:03:20;;;;;;;48.92;37.20;;;;;;;-4.50;81.57;99274.00;4984373;28;20203;-80
2024/01/12 03:05:50;;;;;;;50.90;38.97;;;;;;;-4.36;81.63;99276.81;4990036;28;20660;-80
2024/01/12 03:08:16;;;;;;;52.97;37.58;;;;;;;-4.48;81.26;99269.50;4991201;28;20242;-80
2024/01/12 03:10:43;;;;;;;50.58;35.38;;;;;;;-4.46;81.51;99265.00;4990258;28;20207;-80
2024/01/12 03:13:12;;;;;;;55.35;37.55;;;;;;;-4.32;81.39;99267.78;4990076;28;20290;-80
2024/01/12 03:15:38;;;;;;;51.42;37.58;;;;;;;-4.65;81.77;99269.50;4994937;28;20226;-80
2024/01/12 03:18:05;;;;;;;53.35;38.10;;;;;;;-4.69;82.57;99271.44;4994156;28;20286;-81
2024/01/12 03:20:32;;;;;;;55.65;39.88;;;;;;;-4.53;81.75;99268.88;4983787;28;20297;-80
2024/01/12 03:23:01;;;;;;;51.92;36.58;;;;;;;-4.52;81.71;99270.56;4972027;28;20300;-80
2024/01/12 03:25:27;;;;;;;52.17;38.33;;;;;;;-4.57;82.31;99265.56;4998748;28;20207;-80
2024/01/12 03:27:54;;;;;;;51.72;36.63;;;;;;;-4.60;81.42;99268.34;4990742;28;20205;-80
2024/01/12 03:30:23;;;;;;;51.22;37.88;;;;;;;-4.56;81.46;99274.34;4989658;28;20269;-81
2024/01/12 03:32:50;;;;;;;50.08;34.10;;;;;;;-4.51;81.13;99267.84;4998279;28;20290;-81
2024/01/12 03:35:16;;;;;;;49.78;36.83;;;;;;;-4.55;80.83;99273.41;4990365;28;20219;-80
2024/01/12 03:37:43;;;;;;;48.45;35.05;;;;;;;-4.65;81.08;99275.66;4991821;28;20657;-81
2024/01/12 03:40:11;;;;;;;47.05;34.85;;;;;;;-4.69;80.76;99276.72;4982997;28;20217;-80
2024/01/12 03:42:38;;;;;;;50.88;35.67;;;;;;;-4.71;81.09;99280.38;4989588;28;20214;-81
2024/01/12 03:45:09;;;;;;;49.40;38.45;;;;;;;-4.67;80.58;99287.22;4989016;28;20695;-81
2024/01/12 03:47:37;;;;;;;51.42;37.05;;;;;;;-4.69;80.44;99275.88;4991479;28;20207;-80
2024/01/12 03:50:04;;;;;;;48.97;35.30;;;;;;;-4.65;80.78;99288.84;4990317;28;20745;-80
2024/01/12 03:52:34;;;;;;;47.67;37.30;;;;;;;-4.65;80.31;99290.63;4990374;28;20291;-80
2024/01/12 03:55:01;;;;;;;51.03;35.90;;;;;;;-4.63;80.44;99281.69;4988991;28;20207;-81
2024/01/12 03:57:27;;;;;;;51.47;37.25;;;;;;;-4.62;80.02;99280.78;4990940;28;20211;-81
2024/01/12 03:59:54;;;;;;;51.10;38.70;;;;;;;-4.67;80.19;99281.94;4990474;28;20230;-81
2024/01/12 04:02:20;;;;;;;55.55;39.70;;;;;;;-4.72;80.49;99281.31;4989652;28;20230;-81
2024/01/12 04:04:49;;;;;;;54.97;39.55;;;;;;;-4.76;80.23;99277.94;4987710;28;20242;-80
2024/01/12 04:07:15;;;;;;;55.35;39.63;;;;;;;-4.82;80.60;99289.66;4989714;28;20199;-80
2024/01/12 04:09:43;;;;;;;48.25;38.45;;;;;;;-4.89;81.14;99279.50;4988463;28;20215;-80
2024/01/12 04:12:10;;;;;;;56.17;41.88;;;;;;;-4.83;81.02;99274.75;4988290;28;20195;-80
2024/01/12 04:14:39;;;;;;;55.15;41.47;;;;;;;-4.85;81.40;99278.41;5020306;28;20195;-81
2024/01/12 04:17:07;;;;;;;53.55;39.78;;;;;;;-4.87;81.18;99275.84;4998096;28;20203;-81
2024/01/12 04:19:36;;;;;;;54.78;39.83;;;;;;;-4.89;81.06;99283.00;4990040;28;20338;-80
2024/01/12 04:22:05;;;;;;;58.95;42.22;;;;;;;-4.92;81.09;99283.16;4989448;28;20624;-80
2024/01/12 04:24:32;;;;;;;55.97;41.97;;;;;;;-4.88;80.92;99284.72;4981461;28;20295;-80
2024/01/12 04:26:59;;;;;;;55.50;40.83;;;;;;;-4.91;81.39;99300.69;4986076;28;20203;-81
2024/01/12 04:29:26;;;;;;;54.40;40.20;;;;;;;-4.99;81.69;99257.13;4990802;28;20207;-80
2024/01/12 04:31:53;;;;;;;56.22;40.92;;;;;;;-5.17;82.86;99287.88;4969376;28;20199;-80
2024/01/12 04:34:19;;;;;;;53.72;41.92;;;;;;;-5.20;82.71;99293.34;4991963;28;20286;-81
2024/01/12 04:36:47;;;;;;;51.40;41.20;;;;;;;-5.09;82.75;99286.59;4992122;28;20274;-80
2024/01/12 04:39:16;;;;;;;60.70;42.40;;;;;;;-5.09;82.89;99288.38;4980425;28;20752;-80
2024/01/12 04:41:43;;;;;;;58.22;42.35;;;;;;;-5.09;82.49;99288.38;4995993;28;20215;-80
2024/01/12 04:44:10;;;;;;;57.60;41.53;;;;;;;-5.15;83.52;99291.31;4994650;28;20290;-81
2024/01/12 04:46:39;;;;;;;56.17;41.80;;;;;;;-4.84;81.06;99286.25;4994734;28;20225;-80
2024/01/12 04:49:06;;;;;;;53.60;40.22;;;;;;;-4.94;81.14;99295.56;4994410;28;20302;-80
2024/01/12 04:51:33;;;;;;;53.40;41.15;;;;;;;-5.15;81.90;99296.59;4993186;28;20210;-80
2024/01/12 04:53:59;;;;;;;57.90;42.67;;;;;;;-5.16;81.78;99300.16;4992044;28;20203;-80
2024/01/12 04:56:28;;;;;;;59.05;41.50;;;;;;;-5.27;82.21;99292.75;5028149;28;20207;-80
2024/01/12 04:58:55;;;;;;;56.65;43.63;;;;;;;-5.19;82.41;99308.19;5002886;28;20335;-80
2024/01/12 05:01:23;;;;;;;58.20;41.88;;;;;;;-5.36;81.92;99313.44;4989104;28;20255;-80
2024/01/12 05:03:50;;;;;;;60.85;42.35;;;;;;;-5.33;81.30;99319.41;5001572;28;20710;-80
2024/01/12 05:06:17;;;;;;;56.15;40.22;;;;;;;-5.38;83.41;99313.50;4992830;28;20293;-80
2024/01/12 05:08:44;;;;;;;57.45;43.53;;;;;;;-5.47;82.94;99327.97;4985919;28;20683;-80
2024/01/12 05:11:11;;;;;;;54.53;42.55;;;;;;;-5.54;83.81;99323.06;4994393;28;20199;-78
2024/01/12 05:13:44;;;;;;;62.63;45.75;;;;;;;-5.36;83.27;99323.97;4993483;28;20233;-79
2024/01/12 05:16:11;;;;;;;63.03;45.20;;;;;;;-5.42;83.79;99319.84;4993866;28;20716;-80
2024/01/12 05:18:38;;;;;;;64.55;49.22;;;;;;;-5.50;84.17;99351.84;5001522;28;20196;-79
2024/01/12 05:21:05;;;;;;;65.20;45.67;;;;;;;-5.33;84.13;99329.13;4992382;28;20317;-79
2024/01/12 05:23:31;;;;;;;59.70;43.95;;;;;;;-5.37;83.40;99327.53;4993304;28;20286;-79
2024/01/12 05:25:58;;;;;;;60.13;44.53;;;;;;;-5.38;83.03;99325.84;4989660;28;20204;-80
2024/01/12 05:28:25;;;;;;;64.00;43.53;;;;;;;-5.37;83.33;99327.53;4991336;28;20290;-80
2024/01/12 05:30:53;;;;;;;59.28;43.42;;;;;;;-5.37;83.14;99327.53;5001833;28;20230;-80
2024/01/12 05:33:19;;;;;;;62.60;43.08;;;;;;;-5.48;82.89;99326.25;4993149;28;20205;-80
2024/01/12 05:35:46;;;;;;;68.60;43.10;;;;;;;-5.45;82.56;99330.53;4988742;28;20228;-77
2024/01/12 05:38:13;;;;;;;59.90;44.17;;;;;;;-5.63;83.73;99319.06;4991216;28;20210;-79
2024/01/12 05:40:40;;;;;;;66.10;48.00;;;;;;;-5.78;84.32;99310.06;4988230;28;20298;-79
2024/01/12 05:43:08;;;;;;;69.57;46.03;;;;;;;-5.85;84.47;99313.06;4995826;28;20211;-78
2024/01/12 05:45:35;;;;;;;69.88;49.83;;;;;;;-5.98;84.92;99314.53;4990589;28;20595;-78
2024/01/12 05:48:03;;;;;;;70.90;51.00;;;;;;;-5.88;84.74;99321.09;4991683;28;20199;-79
2024/01/12 05:50:30;;;;;;;67.25;49.67;;;;;;;-5.99;84.93;99312.84;5022508;28;20227;-79
2024/01/12 05:52:57;;;;;;;75.22;52.58;;;;;;;-6.03;85.17;99321.78;4957991;28;20294;-78
2024/01/12 05:55:24;;;;;;;73.47;53.70;;;;;;;-5.97;85.29;99325.03;4990730;28;20222;-76
2024/01/12 05:57:51;;;;;;;71.18;49.17;;;;;;;-5.91;85.02;99329.16;4999550;28;20713;-78
2024/01/12 06:00:18;;;;;;;74.38;50.88;;;;;;;-6.05;84.91;99303.41;4987990;28;20298;-78
2024/01/12 06:02:44;;;;;;;76.57;54.88;;;;;;;-6.04;85.70;99320.09;4993390;28;20230;-76
2024/01/12 06:05:17;;;;;;;72.80;50.72;;;;;;;-6.10;85.93;99322.06;4991906;28;20628;-85
2024/01/12 06:07:44;;;;;;;74.05;53.03;;;;;;;-6.01;85.90;99310.25;5005253;28;20286;-79
2024/01/12 06:10:12;;;;;;;74.78;53.38;;;;;;;-6.13;85.71;99319.56;4994550;28;20199;-79
2024/01/12 06:12:39;;;;;;;68.78;50.13;;;;;;;-6.27;85.84;99316.69;4994569;28;20210;-79
2024/01/12 06:15:07;;;;;;;75.88;53.97;;;;;;;-6.23;86.88;99318.25;4995102;28;20203;-79
2024/01/12 06:17:34;;;;;;;66.22;49.10;;;;;;;-6.15;86.36;99324.03;4988245;28;20199;-79
2024/01/12 06:20:00;;;;;;;77.13;53.85;;;;;;;-6.20;86.49;99323.41;4990277;28;20202;-77
2024/01/12 06:22:29;;;;;;;73.28;51.72;;;;;;;-6.15;86.27;99324.03;4990666;28;20223;-78
2024/01/12 06:24:56;;;;;;;82.68;54.33;;;;;;;-6.27;86.77;99321.09;4990525;28;20207;-79
2024/01/12 06:27:22;;;;;;;68.05;50.15;;;;;;;-6.22;87.04;99319.13;5022999;28;20260;-79
2024/01/12 06:29:49;;;;;;;73.95;50.38;;;;;;;-6.04;86.50;99309.53;5016756;28;20218;-78
2024/01/12 06:32:15;;;;;;;71.60;50.65;;;;;;;-5.83;85.87;99305.91;4988398;28;20263;-78
2024/01/12 06:34:43;;;;;;;73.95;51.17;;;;;;;-5.84;85.50;99307.69;4991987;28;20242;-78
2024/01/12 06:37:10;;;;;;;67.38;48.97;;;;;;;-5.81;85.61;99304.06;4990266;28;20671;-79
2024/01/12 06:39:40;;;;;;;75.07;52.95;;;;;;;-5.79;85.39;99304.84;4997922;28;20715;-77
2024/01/12 06:42:11;;;;;;;69.47;51.30;;;;;;;-5.69;85.37;99306.16;4990507;28;20310;-78
2024/01/12 06:44:39;;;;;;;74.50;50.60;;;;;;;-5.81;85.24;99294.38;4990241;28;20215;-77
2024/01/12 06:47:08;;;;;;;70.78;50.92;;;;;;;-5.78;85.44;99301.28;4999162;28;20634;-78
2024/01/12 06:49:34;;;;;;;72.20;49.30;;;;;;;-5.89;85.42;99303.59;5000482;28;20206;-76
2024/01/12 06:52:01;;;;;;;71.90;51.10;;;;;;;-5.98;85.24;99298.75;4990942;28;20210;-77
2024/01/12 06:54:28;;;;;;;74.35;50.03;;;;;;;-5.94;85.63;99298.53;4990670;28;20316;-78
2024/01/12 06:56:58;;;;;;;73.00;51.67;;;;;;;-6.00;85.16;99295.31;4992958;28;20278;-78
2024/01/12 06:59:25;;;;;;;68.35;50.53;;;;;;;-5.98;85.68;99309.28;5021287;28;20199;-78
2024/01/12 07:01:52;;;;;;;62.78;44.63;;;;;;;-5.92;85.85;99315.13;4992984;28;20310;-78
2024/01/12 07:04:19;;;;;;;74.65;49.63;;;;;;;-6.04;85.97;99315.66;4988927;28;20230;-78
2024/01/12 07:06:46;;;;;;;73.22;50.90;;;;;;;-5.98;85.78;99309.28;4990860;28;20217;-78
2024/01/12 07:09:14;;;;;;;76.00;51.30;;;;;;;-6.03;86.08;99306.84;4989103;28;20199;-78
2024/01/12 07:11:41;;;;;;;72.22;50.88;;;;;;;-6.02;86.19;99312.97;4974724;28;20207;-78
2024/01/12 07:14:09;;;;;;;70.15;49.20;;;;;;;-5.84;85.84;99312.09;4998297;28;20695;-78
2024/01/12 07:16:36;;;;;;;66.50;47.85;;;;;;;-5.92;85.46;99314.28;4997864;28;20207;-79
2024/01/12 07:19:03;;;;;;;70.15;51.05;;;;;;;-5.78;85.28;99315.31;4990900;28;20210;-79
2024/01/12 07:21:29;;;;;;;69.00;47.78;;;;;;;-5.78;85.05;99298.66;4998473;28;20231;-79
2024/01/12 07:23:56;;;;;;;68.35;48.40;;;;;;;-5.67;84.66;99324.53;4991822;28;20286;-78
2024/01/12 07:26:24;;;;;;;65.78;46.72;;;;;;;-5.49;84.08;99316.63;4986662;28;20213;-79
2024/01/12 07:28:50;;;;;;;71.22;50.08;;;;;;;-5.49;83.72;99314.00;4987399;28;20213;-79
2024/01/12 07:31:19;;;;;;;71.95;47.50;;;;;;;-5.49;83.71;99319.25;4986177;28;20203;-79
2024/01/12 07:33:46;;;;;;;70.35;48.70;;;;;;;-5.55;84.19;99329.25;4986549;28;20203;-74
2024/01/12 07:36:13;;;;;;;68.75;49.92;;;;;;;-5.59;84.63;99333.81;5005634;28;20218;-74
2024/01/12 07:38:40;;;;;;;69.53;49.83;;;;;;;-5.66;84.75;99326.25;4990203;28;20287;-75
2024/01/12 07:41:06;;;;;;;70.32;48.67;;;;;;;-5.57;84.54;99337.25;4989681;28;20211;-81
2024/01/12 07:43:33;;;;;;;72.63;51.17;;;;;;;-5.55;84.48;99335.38;4986742;28;20281;-75
2024/01/12 07:46:00;;;;;;;67.03;49.58;;;;;;;-5.53;84.25;99341.47;4997032;28;20195;-74
2024/01/12 07:48:28;;;;;;;65.50;47.83;;;;;;;-5.38;83.56;99342.50;4981798;28;20207;-74
2024/01/12 07:50:55;;;;;;;60.60;43.15;;;;;;;-5.32;83.44;99352.78;4988607;28;20222;-75
2024/01/12 07:53:21;;;;;;;62.20;46.15;;;;;;;-5.23;83.11;99341.81;4986666;28;20207;-74
2024/01/12 07:55:49;;;;;;;62.80;46.47;;;;;;;-5.09;82.98;99354.34;4987014;28;20832;-75
2024/01/12 07:58:18;;;;;;;63.70;45.63;;;;;;;-5.16;82.28;99358.19;4987993;28;20210;-75
2024/01/12 08:00:45;;;;;;;65.63;46.25;;;;;;;-5.29;83.02;99360.56;4980092;28;20203;-74
2024/01/12 08:03:11;;;;;;;66.40;46.97;;;;;;;-4.98;82.72;99356.47;4988580;28;20215;-75
2024/01/12 08:05:39;;;;;;;62.65;45.78;;;;;;;-4.72;81.32;99360.50;4988800;28;20207;-75
2024/01/12 08:08:06;;;;;;;60.47;45.63;;;;;;;-4.74;81.75;99344.75;4988481;28;20549;-74
2024/01/12 08:10:33;;;;;;;60.70;44.33;;;;;;;-4.62;80.89;99348.56;4990414;28;20625;-75
2024/01/12 08:13:00;;;;;;;60.03;44.80;;;;;;;-4.52;80.14;99350.66;4986659;28;20203;-74
2024/01/12 08:15:27;;;;;;;58.55;42.88;;;;;;;-4.49;80.08;99361.09;4986970;28;20214;-75
2024/01/12 08:17:53;;;;;;;56.35;41.10;;;;;;;-4.40;79.36;99360.63;4987206;28;20203;-75
2024/01/12 08:20:20;;;;;;;58.45;40.15;;;;;;;-4.05;78.70;99363.28;4966846;28;20290;-76
2024/01/12 08:22:48;;;;;;;54.03;39.60;;;;;;;-4.01;79.02;99369.28;4971937;28;20227;-77
2024/01/12 08:25:15;;;;;;;53.03;36.95;;;;;;;-3.97;77.48;99363.75;5003524;28;20207;-77
2024/01/12 08:27:41;;;;;;;50.25;35.60;;;;;;;-3.81;77.18;99369.94;4989047;28;20203;-75
2024/01/12 08:30:09;;;;;;;48.30;37.55;;;;;;;-3.66;77.25;99381.53;4987727;28;20214;-75
2024/01/12 08:32:35;;;;;;;49.90;36.53;;;;;;;-3.73;77.10;99381.00;4988789;28;20231;-75
2024/01/12 08:35:02;;;;;;;47.00;36.70;;;;;;;-3.58;76.52;99378.50;4988198;28;20210;-75
2024/01/12 08:37:29;;;;;;;51.55;36.92;;;;;;;-3.55;75.91;99376.50;4988975;28;20225;-75
2024/01/12 08:39:57;;;;;;;49.00;37.83;;;;;;;-3.48;75.49;99380.56;4987855;28;20290;-75
2024/01/12 08:42:24;;;;;;;51.67;34.45;;;;;;;-3.49;75.52;99385.91;4990731;28;20223;-75
2024/01/12 08:44:51;;;;;;;45.80;34.60;;;;;;;-3.44;75.03;99378.59;4987856;28;20215;-74
2024/01/12 08:47:19;;;;;;;47.67;34.65;;;;;;;-3.19;75.41;99388.72;4990271;28;20298;-74
2024/01/12 08:49:45;;;;;;;46.55;34.90;;;;;;;-3.16;74.48;99396.50;4989353;28;20210;-74
2024/01/12 08:52:12;;;;;;;46.30;34.28;;;;;;;-2.22;72.98;99387.66;4990442;28;20718;-75
2024/01/12 08:54:38;;;;;;;49.30;34.67;;;;;;;-2.15;70.96;99384.56;4988647;28;20261;-76
2024/01/12 08:57:07;;;;;;;45.53;34.78;;;;;;;-1.93;70.05;99383.31;4983426;28;20203;-75
2024/01/12 08:59:33;;;;;;;45.40;34.45;;;;;;;-2.32;70.41;99386.50;4987014;28;20289;-76
2024/01/12 09:02:00;;;;;;;45.72;33.33;;;;;;;-2.16;70.67;99385.50;4989698;28;20322;-75
2024/01/12 09:04:28;;;;;;;47.00;40.53;;;;;;;-1.97;70.62;99392.41;4990717;28;20203;-75
2024/01/12 09:06:54;;;;;;;46.63;34.33;;;;;;;-1.85;69.84;99397.81;4989202;28;20203;-76
2024/01/12 09:09:21;;;;;;;43.20;31.85;;;;;;;-1.18;68.97;99387.56;4989493;28;20560;-76
2024/01/12 09:11:47;;;;;;;45.85;33.85;;;;;;;-0.70;66.45;99384.47;4988678;28;20280;-73
2024/01/12 09:14:15;;;;;;;44.15;34.03;;;;;;;0.07;63.76;99382.09;5006021;28;20298;-75
2024/01/12 09:16:42;;;;;;;40.53;32.88;;;;;;;1.06;61.37;99376.03;4989460;28;20243;-75
2024/01/12 09:19:08;;;;;;;40.03;33.38;;;;;;;1.71;57.97;99373.06;4990642;28;20461;-75
2024/01/12 09:21:42;;;;;;;40.20;32.85;;;;;;;2.08;56.27;99381.00;4993608;28;20214;-76
2024/01/12 09:24:09;;;;;;;41.60;34.03;;;;;;;2.52;54.74;99375.78;4990130;28;20235;-74
2024/01/12 09:26:37;;;;;;;40.35;32.72;;;;;;;3.02;54.36;99370.97;4996431;28;20215;-74
2024/01/12 09:29:04;;;;;;;37.63;33.05;;;;;;;3.06;52.59;99380.44;4996631;28;20283;-75
2024/01/12 09:31:38;;;;;;;38.50;32.00;;;;;;;3.42;52.72;99386.50;4991560;28;20203;-75
2024/01/12 09:34:05;;;;;;;37.33;32.15;;;;;;;3.71;51.51;99387.66;4990712;28;20313;-75
2024/01/12 09:36:32;;;;;;;39.25;33.10;;;;;;;3.74;51.43;99374.03;4986899;28;20737;-75
2024/01/12 09:38:58;;;;;;;40.03;35.70;;;;;;;3.45;51.47;99375.56;4992040;28;20278;-75
2024/01/12 09:41:29;;;;;;;38.90;33.63;;;;;;;3.15;51.46;99381.53;4991220;28;20687;-75
2024/01/12 09:43:59;;;;;;;39.58;35.28;;;;;;;3.49;51.86;99382.34;4990835;28;20244;-75
2024/01/12 09:46:28;;;;;;;37.42;33.00;;;;;;;3.89;51.10;99380.81;5007413;28;20194;-74
2024/01/12 09:48:56;;;;;;;37.13;33.08;;;;;;;3.99;50.21;99376.38;4990193;28;20561;-75
2024/01/12 09:51:24;;;;;;;35.90;32.13;;;;;;;3.95;49.40;99372.25;4999660;28;20204;-75
2024/01/12 09:53:51;;;;;;;37.05;32.95;;;;;;;3.55;50.32;99381.88;5002061;28;20199;-75
2024/01/12 09:56:18;;;;;;;36.67;32.20;;;;;;;3.84;49.75;99376.81;4999438;28;20195;-75
2024/01/12 09:58:45;;;;;;;36.22;31.90;;;;;;;4.25;49.19;99376.84;4987892;28;20572;-75
2024/01/12 10:01:12;;;;;;;30.67;27.48;;;;;;;4.32;48.85;99377.19;4987437;28;20203;-74
2024/01/12 10:03:38;;;;;;;34.55;31.05;;;;;;;3.48;50.03;99372.63;4990409;28;20229;-74
2024/01/12 10:06:07;;;;;;;34.72;31.02;;;;;;;3.48;50.74;99372.63;4989508;28;20210;-74
2024/01/12 10:08:37;;;;;;;33.80;30.20;;;;;;;3.28;51.43;99372.41;4989428;28;20282;-74
2024/01/12 10:11:03;;;;;;;37.42;31.88;;;;;;;3.72;51.21;99374.16;5005201;28;20306;-74
2024/01/12 10:13:30;;;;;;;36.17;31.75;;;;;;;3.05;51.97;99370.72;4990200;28;20597;-75
2024/01/12 10:16:01;;;;;;;37.33;33.10;;;;;;;3.66;51.85;99368.44;4987529;28;20212;-75
2024/01/12 10:18:27;;;;;;;35.67;31.48;;;;;;;3.92;50.81;99377.00;4989680;28;20214;-74
2024/01/12 10:20:54;;;;;;;39.38;32.50;;;;;;;4.40;49.33;99358.63;4991064;28;20199;-75
2024/01/12 10:23:22;;;;;;;37.85;32.55;;;;;;;4.65;48.84;99344.81;4987317;28;20219;-73
2024/01/12 10:25:58;;;;;;;35.53;31.73;;;;;;;4.98;48.23;99361.66;4990485;28;20210;-73
2024/01/12 10:28:27;;;;;;;35.20;31.48;;;;;;;5.13;47.32;99360.31;4988483;28;20195;-74
2024/01/12 10:30:54;;;;;;;33.95;30.45;;;;;;;5.51;46.32;99356.06;4989751;28;20205;-74
2024/01/12 10:33:21;;;;;;;32.03;28.65;;;;;;;5.11;47.18;99353.38;4982766;28;20254;-73
2024/01/12 10:35:49;;;;;;;31.98;28.58;;;;;;;5.01;47.22;99353.34;4987333;28;20214;-73
2024/01/12 10:38:17;;;;;;;30.52;27.25;;;;;;;5.13;47.49;99346.91;4982842;28;20314;-73
2024/01/12 10:40:45;;;;;;;31.95;28.48;;;;;;;4.50;48.62;99353.34;4988766;28;20199;-74
2024/01/12 10:43:13;;;;;;;30.80;27.55;;;;;;;4.86;48.19;99360.06;4989624;28;20223;-75
2024/01/12 10:45:45;;;;;;;31.42;27.58;;;;;;;4.64;48.31;99348.47;4989192;28;20209;-74
2024/01/12 10:48:12;;;;;;;31.90;28.52;;;;;;;4.68;48.02;99341.03;4991375;28;20672;-74
2024/01/12 10:50:42;;;;;;;32.03;28.52;;;;;;;4.62;48.27;99339.72;4988771;28;20195;-75
2024/01/12 10:53:13;;;;;;;31.17;27.98;;;;;;;4.91;47.46;99344.38;4990458;28;20246;-74
2024/01/12 10:55:43;;;;;;;32.20;28.40;;;;;;;4.23;48.38;99343.13;4988721;28;20211;-74
2024/01/12 10:58:14;;;;;;;30.80;27.52;;;;;;;4.76;46.97;99337.69;5021819;28;20242;-74
2024/01/12 11:00:41;;;;;;;29.95;26.77;;;;;;;5.47;45.94;99343.91;4990339;28;20191;-75
2024/01/12 11:03:08;;;;;;;28.55;25.63;;;;;;;5.82;45.12;99341.56;4989295;28;20223;-75
2024/01/12 11:05:35;;;;;;;31.40;28.10;;;;;;;5.67;45.68;99329.50;4989837;28;20294;-75
2024/01/12 11:08:07;;;;;;;30.85;27.60;;;;;;;5.47;45.60;99327.78;4989407;28;20203;-75
2024/01/12 11:10:35;;;;;;;30.90;27.70;;;;;;;5.58;45.44;99319.59;4989192;28;20199;-76
2024/01/12 11:13:02;;;;;;;32.50;29.20;;;;;;;5.16;46.63;99325.16;4988231;28;20194;-76
2024/01/12 11:15:30;;;;;;;32.15;28.95;;;;;;;5.04;47.15;99336.97;4989051;28;20782;-75
2024/01/12 11:17:57;;;;;;;31.65;28.25;;;;;;;5.17;47.06;99344.78;5003578;28;20299;-74
2024/01/12 11:20:24;;;;;;;33.30;28.65;;;;;;;5.47;46.31;99331.31;4988073;28;20199;-76